Time;durP1;ratioP1;P1;durP2;ratioP2;P2;SDS_P1;SDS_P2;PMS_P1;PMS_P2;Temp;Humidity;BMP_temperature;BMP_pressure;BME280_temperature;BME280_humidity;BME280_pressure;Samples;Min_cycle;Max_cycle;Signal;HPM_P1;HPM_P2
2022/04/01 00:01:34;;;;;;;13.20;8.40;;;;;;;9.49;86.28;95326.54;110010;1247;69412;-63
2022/04/01 00:04:05;;;;;;;15.60;9.10;;;;;;;9.47;86.69;95322.78;110001;1247;68596;-64
2022/04/01 00:06:35;;;;;;;14.70;9.60;;;;;;;9.46;85.40;95325.01;109952;1247;58950;-62
2022/04/01 00:09:06;;;;;;;15.80;7.70;;;;;;;9.43;85.16;95329.11;109980;1247;58946;-62
2022/04/01 00:11:37;;;;;;;13.40;9.10;;;;;;;9.41;85.42;95328.45;109992;1247;70207;-61
2022/04/01 00:14:08;;;;;;;13.00;8.00;;;;;;;9.39;85.72;95326.86;110111;1247;68713;-62
2022/04/01 00:16:39;;;;;;;12.00;7.90;;;;;;;9.39;84.92;95322.16;109980;1247;68604;-62
2022/04/01 00:19:12;;;;;;;11.20;7.90;;;;;;;9.41;84.59;95325.48;110225;1247;58889;-61
2022/04/01 00:21:43;;;;;;;10.30;8.00;;;;;;;9.43;85.18;95326.48;110014;1247;58895;-63
2022/04/01 00:24:14;;;;;;;13.10;7.70;;;;;;;9.45;85.48;95319.70;109991;1247;69996;-61
2022/04/01 00:26:45;;;;;;;14.50;8.00;;;;;;;9.47;85.30;95321.90;109922;1247;69309;-60
2022/04/01 00:29:16;;;;;;;11.70;8.50;;;;;;;9.49;86.08;95324.13;110014;1247;68948;-61
2022/04/01 00:31:49;;;;;;;;;;;;;;;9.51;84.94;95325.70;109984;1247;58898;-61
2022/04/01 00:34:19;;;;;;;11.30;7.30;;;;;;;9.52;85.44;95328.73;110016;1248;58874;-61
2022/04/01 00:36:50;;;;;;;16.20;9.60;;;;;;;9.53;85.94;95329.85;110008;1247;70535;-61
2022/04/01 00:39:21;;;;;;;13.20;8.90;;;;;;;9.53;86.49;95328.39;109946;1248;68725;-62
2022/04/01 00:41:52;;;;;;;12.00;8.30;;;;;;;9.54;85.41;95333.15;109930;1247;68471;-61
2022/04/01 00:44:27;;;;;;;17.30;10.50;;;;;;;9.55;86.60;95326.86;109991;1247;58881;-62
2022/04/01 00:47:03;;;;;;;12.00;8.10;;;;;;;9.52;85.93;95324.57;110024;1247;58859;-63
2022/04/01 00:49:34;;;;;;;13.30;8.70;;;;;;;9.48;85.98;95328.23;110028;1247;70564;-60
2022/04/01 00:52:08;;;;;;;14.00;9.50;;;;;;;9.44;85.86;95326.52;110015;1247;69548;-61
2022/04/01 00:54:39;;;;;;;15.60;7.80;;;;;;;9.41;85.92;95324.56;109999;1247;69294;-61
2022/04/01 00:57:12;;;;;;;14.70;8.80;;;;;;;9.40;85.71;95322.26;109958;1247;58954;-63
2022/04/01 00:59:43;;;;;;;16.20;8.80;;;;;;;9.39;85.77;95326.17;109933;1247;58900;-62
2022/04/01 01:02:18;;;;;;;15.10;8.30;;;;;;;9.39;86.53;95327.21;109870;1248;70043;-62
2022/04/01 01:04:49;;;;;;;12.60;9.00;;;;;;;9.41;86.79;95330.17;109940;1247;69362;-61
2022/04/01 01:07:20;;;;;;;14.20;8.10;;;;;;;9.41;86.00;95331.94;109997;1247;68393;-61
2022/04/01 01:09:51;;;;;;;13.00;7.00;;;;;;;9.43;85.13;95331.55;109956;1248;58957;-61
2022/04/01 01:12:21;;;;;;;14.00;8.40;;;;;;;9.45;85.05;95328.70;109995;1247;58909;-62
2022/04/01 01:14:53;;;;;;;13.70;8.30;;;;;;;9.47;85.77;95328.48;109959;1247;70700;-62
2022/04/01 01:17:24;;;;;;;13.20;8.40;;;;;;;9.50;86.19;95325.82;109997;1245;69439;-62
2022/04/01 01:19:54;;;;;;;12.30;6.80;;;;;;;9.51;85.72;95327.10;109955;1249;67709;-62
2022/04/01 01:22:24;;;;;;;12.00;6.60;;;;;;;9.53;85.28;95330.55;109882;1247;58932;-62
2022/04/01 01:24:56;;;;;;;10.40;7.60;;;;;;;9.51;85.40;95331.19;110018;1248;58876;-61
2022/04/01 01:27:26;;;;;;;13.90;8.30;;;;;;;9.52;85.33;95334.45;109951;1247;70789;-61
2022/04/01 01:29:58;;;;;;;11.00;8.70;;;;;;;9.52;85.00;95326.81;109967;1247;69350;-61
2022/04/01 01:32:29;;;;;;;12.40;7.00;;;;;;;9.53;85.05;95328.09;109878;1248;68694;-63
2022/04/01 01:35:00;;;;;;;18.20;9.80;;;;;;;9.54;85.08;95321.83;109912;1248;58948;-62
2022/04/01 01:37:31;;;;;;;10.30;7.60;;;;;;;9.57;84.74;95318.79;110013;1247;58879;-62
2022/04/01 01:40:05;;;;;;;11.90;8.00;;;;;;;9.60;84.43;95323.85;110046;1248;69974;-61
2022/04/01 01:42:36;;;;;;;13.10;8.10;;;;;;;9.64;83.84;95324.00;110107;1248;69291;-61
2022/04/01 01:45:07;;;;;;;13.40;7.50;;;;;;;9.67;83.30;95323.82;110133;1248;68518;-61
2022/04/01 01:47:37;;;;;;;12.80;8.00;;;;;;;9.72;82.89;95321.27;109959;1248;58999;-61
2022/04/01 01:55:45;;;;;;;12.80;7.70;;;;;;;9.83;82.52;95302.35;109940;1247;68970;-63
2022/04/01 01:58:17;;;;;;;14.10;9.30;;;;;;;9.87;81.85;95306.55;110082;1247;68551;-63
2022/04/01 02:00:48;;;;;;;17.50;9.90;;;;;;;9.90;81.74;95312.50;110059;1247;58891;-63
2022/04/01 02:03:18;;;;;;;12.20;7.60;;;;;;;9.90;81.00;95312.96;109987;1247;58891;-62
2022/04/01 02:05:50;;;;;;;13.30;9.10;;;;;;;9.90;81.53;95309.30;110049;1247;69819;-61
2022/04/01 02:08:20;;;;;;;15.70;9.70;;;;;;;9.90;82.91;95310.38;109945;1248;69249;-62
2022/04/01 02:10:50;;;;;;;16.30;10.10;;;;;;;9.87;83.68;95309.45;109998;1247;68421;-61
2022/04/01 02:13:22;;;;;;;14.00;9.00;;;;;;;9.86;82.68;95313.43;109978;1247;59007;-62
2022/04/01 02:15:51;;;;;;;;;;;;;;;9.84;82.47;95315.14;110023;1247;58906;-61
2022/04/01 02:18:22;;;;;;;15.40;8.60;;;;;;;9.83;82.61;95318.43;110016;1247;70886;-62
2022/04/01 02:20:53;;;;;;;11.30;7.80;;;;;;;9.82;81.88;95317.98;110008;1247;68622;-62
2022/04/01 02:23:24;;;;;;;13.80;8.40;;;;;;;9.83;82.04;95321.59;110050;1247;68703;-61
2022/04/01 02:25:56;;;;;;;13.80;8.20;;;;;;;9.85;81.97;95321.19;109971;1247;58888;-62
2022/04/01 02:28:26;;;;;;;12.30;8.10;;;;;;;9.88;81.74;95318.10;109986;1247;58908;-62
2022/04/01 02:30:57;;;;;;;10.50;6.60;;;;;;;9.89;81.00;95315.16;109937;1248;70527;-61
2022/04/01 02:33:51;;;;;;;13.70;6.70;;;;;;;9.93;80.78;95318.23;110078;1247;69210;-61
2022/04/01 02:36:21;;;;;;;;;;;;;;;9.95;80.79;95316.30;109984;1247;68656;-68
2022/04/01 02:38:50;;;;;;;13.90;7.50;;;;;;;9.98;81.13;95313.55;109892;1248;58894;-60
2022/04/01 02:41:21;;;;;;;14.80;7.50;;;;;;;9.99;80.84;95315.52;109940;1249;58921;-63
2022/04/01 02:44:08;;;;;;;13.20;7.30;;;;;;;10.01;80.44;95315.30;109829;1248;69956;-62
2022/04/01 02:46:42;;;;;;;15.50;8.00;;;;;;;10.03;79.92;95321.89;109915;1248;68586;-62
2022/04/01 02:49:15;;;;;;;14.00;7.60;;;;;;;10.03;79.69;95323.63;110015;1248;69461;-61
2022/04/01 02:52:14;;;;;;;11.90;7.40;;;;;;;10.04;79.89;95316.95;109750;1249;58958;-63
2022/04/01 02:54:45;;;;;;;;;;;;;;;10.04;79.46;95315.17;110050;1247;58918;-61
2022/04/01 02:57:15;;;;;;;15.50;7.20;;;;;;;10.05;80.20;95318.97;110127;1247;69948;-67
2022/04/01 02:59:45;;;;;;;13.40;7.50;;;;;;;10.06;80.26;95319.67;110018;1247;69204;-62
2022/04/01 03:02:15;;;;;;;14.70;7.00;;;;;;;10.08;79.77;95318.27;109901;1247;69409;-62
2022/04/01 03:04:47;;;;;;;16.80;7.60;;;;;;;10.10;79.90;95317.70;109944;1249;58947;-62
2022/04/01 03:07:18;;;;;;;13.80;7.40;;;;;;;10.11;79.84;95313.52;109945;1249;58917;-62
2022/04/01 03:09:48;;;;;;;11.30;6.20;;;;;;;10.14;79.14;95314.29;109989;1248;70103;-63
2022/04/01 03:12:23;;;;;;;12.80;6.80;;;;;;;10.18;78.65;95317.02;109993;1247;68505;-64
2022/04/01 03:14:53;;;;;;;12.80;7.50;;;;;;;10.23;78.64;95323.14;109957;1248;69247;-63
2022/04/01 03:17:42;;;;;;;13.10;6.90;;;;;;;10.24;79.49;95323.17;109972;1247;58930;-63
2022/04/01 03:20:35;;;;;;;15.10;7.80;;;;;;;10.26;78.66;95320.81;109826;1249;58892;-60
2022/04/01 03:23:06;;;;;;;12.00;6.10;;;;;;;10.28;78.87;95318.34;109958;1247;70714;-61
2022/04/01 03:25:41;;;;;;;12.20;6.30;;;;;;;10.29;79.17;95318.73;110042;1247;68612;-61
2022/04/01 03:28:26;;;;;;;9.80;5.40;;;;;;;10.32;79.01;95317.77;110015;1247;68968;-62
2022/04/01 03:31:04;;;;;;;13.50;6.10;;;;;;;10.34;77.88;95312.56;110007;1247;58888;-63
2022/04/01 03:33:38;;;;;;;9.80;5.60;;;;;;;10.38;77.34;95313.39;109925;1247;58944;-62
2022/04/01 03:36:09;;;;;;;14.50;7.00;;;;;;;10.42;77.62;95315.19;109861;1248;70589;-64
2022/04/01 03:38:43;;;;;;;11.20;7.40;;;;;;;10.43;78.82;95312.11;109886;1249;68883;-62
2022/04/01 03:41:19;;;;;;;14.10;6.20;;;;;;;10.43;79.64;95313.06;109897;1249;68653;-61
2022/04/01 03:43:52;;;;;;;13.70;7.20;;;;;;;10.41;79.94;95313.89;109907;1249;58887;-63
2022/04/01 03:46:26;;;;;;;14.40;8.30;;;;;;;10.40;79.75;95310.45;109974;1249;58920;-62
2022/04/01 03:49:07;;;;;;;12.10;6.50;;;;;;;10.36;79.55;95309.98;109990;1248;71116;-64
2022/04/01 03:51:38;;;;;;;13.30;7.90;;;;;;;10.30;81.28;95314.25;110064;1247;69347;-63
2022/04/01 03:54:10;;;;;;;15.70;8.70;;;;;;;10.22;81.57;95310.17;109690;1247;69387;-60
2022/04/01 03:57:01;;;;;;;11.00;6.50;;;;;;;10.18;81.60;95309.86;110009;1248;58957;-62
2022/04/01 03:59:54;;;;;;;11.30;5.70;;;;;;;10.18;80.37;95322.40;110045;1247;58855;-63
2022/04/01 04:02:44;;;;;;;15.80;7.00;;;;;;;10.21;80.54;95322.49;109943;1247;71226;-62
2022/04/01 04:05:21;;;;;;;14.10;6.20;;;;;;;10.23;78.81;95319.31;109924;1248;68716;-62
2022/04/01 04:07:51;;;;;;;15.00;7.80;;;;;;;10.29;78.62;95315.91;109953;1247;69318;-62
2022/04/01 04:10:28;;;;;;;12.80;6.80;;;;;;;10.34;78.42;95314.91;109776;1248;58962;-62
2022/04/01 04:13:25;;;;;;;12.00;6.70;;;;;;;10.38;77.17;95313.19;109915;1248;58898;-62
2022/04/01 04:16:18;;;;;;;12.00;6.70;;;;;;;10.48;76.54;95312.52;109956;1247;70083;-62
2022/04/01 04:18:51;;;;;;;8.60;5.70;;;;;;;10.57;76.32;95311.58;109985;1247;69358;-62
2022/04/01 04:21:31;;;;;;;15.60;7.10;;;;;;;10.60;76.12;95308.25;109981;1248;67479;-62
2022/04/01 04:24:02;;;;;;;13.70;7.10;;;;;;;10.61;76.56;95311.25;110124;1248;58940;-62
2022/04/01 04:26:49;;;;;;;14.00;8.10;;;;;;;10.61;78.00;95314.74;110009;1247;58824;-61
2022/04/01 04:29:20;;;;;;;12.00;7.50;;;;;;;10.57;78.61;95322.05;110053;1248;70737;-62
2022/04/01 04:32:03;;;;;;;14.60;8.30;;;;;;;10.53;78.31;95331.13;109922;1248;68690;-64
2022/04/01 04:34:38;;;;;;;15.00;7.60;;;;;;;10.48;78.71;95330.11;110043;1248;69556;-62
2022/04/01 04:37:11;;;;;;;11.50;6.40;;;;;;;10.42;78.97;95330.02;109979;1248;58942;-62
2022/04/01 04:39:48;;;;;;;12.20;7.50;;;;;;;10.39;79.50;95329.15;110018;1247;58879;-63
2022/04/01 04:42:18;;;;;;;13.30;7.50;;;;;;;10.35;79.83;95331.65;109919;1248;70533;-65
2022/04/01 04:44:49;;;;;;;15.10;8.30;;;;;;;10.32;79.74;95334.89;109853;1248;69213;-65
2022/04/01 04:47:28;;;;;;;10.70;7.20;;;;;;;10.32;79.71;95336.89;109978;1248;68937;-59
2022/04/01 04:49:58;;;;;;;13.50;6.40;;;;;;;10.32;79.78;95345.33;109968;1247;58881;-65
2022/04/01 04:52:32;;;;;;;13.00;6.20;;;;;;;10.35;79.36;95348.38;109874;1247;58857;-64
2022/04/01 04:55:06;;;;;;;12.90;6.50;;;;;;;10.38;79.55;95348.90;109949;1247;70751;-68
2022/04/01 04:58:01;;;;;;;12.90;7.20;;;;;;;10.42;79.12;95348.98;110003;1247;68612;-68
2022/04/01 05:00:31;;;;;;;8.70;5.30;;;;;;;10.47;79.88;95347.13;109936;1247;69421;-65
2022/04/01 05:03:48;;;;;;;6.40;4.70;;;;;;;10.54;78.05;95349.33;109861;1249;59272;-64
2022/04/01 05:06:27;;;;;;;7.20;4.30;;;;;;;10.66;76.43;95348.92;110113;1248;58863;-63
2022/04/01 05:10:00;;;;;;;13.70;6.10;;;;;;;10.80;76.11;95344.52;109628;1250;71219;-66
2022/04/01 05:12:42;;;;;;;12.50;5.70;;;;;;;10.88;76.27;95337.69;109933;1247;69656;-67
2022/04/01 05:15:40;;;;;;;9.00;4.80;;;;;;;10.95;75.76;95336.57;109763;1249;68677;-63
2022/04/01 05:18:23;;;;;;;10.70;6.00;;;;;;;11.00;76.24;95337.69;109899;1249;58971;-62
2022/04/01 05:21:02;;;;;;;11.40;6.90;;;;;;;11.04;76.48;95337.73;109972;1250;58938;-64
2022/04/01 05:23:58;;;;;;;11.40;5.90;;;;;;;11.08;75.96;95339.96;109821;1249;70245;-63
2022/04/01 05:26:40;;;;;;;10.80;6.50;;;;;;;11.12;75.08;95337.64;109873;1247;69232;-62
2022/04/01 05:29:18;;;;;;;13.70;7.90;;;;;;;11.13;74.89;95339.17;110088;1249;69376;-64
2022/04/01 05:32:05;;;;;;;12.70;8.20;;;;;;;11.15;74.69;95342.77;109925;1250;58954;-62
2022/04/01 05:34:49;;;;;;;14.10;7.00;;;;;;;11.16;75.03;95344.44;109875;1248;59387;-63
2022/04/01 05:37:18;;;;;;;13.50;7.80;;;;;;;11.18;74.43;95345.48;109895;1248;70762;-64
2022/04/01 05:39:49;;;;;;;;;;;;;;;11.18;74.35;95340.20;109827;1249;69528;-64
2022/04/01 05:42:22;;;;;;;11.70;6.70;;;;;;;11.19;74.18;95342.83;109755;1248;68122;-64
2022/04/01 05:45:20;;;;;;;10.30;5.90;;;;;;;11.22;74.60;95345.14;109974;1249;58890;-64
2022/04/01 05:47:50;;;;;;;12.30;5.60;;;;;;;11.26;73.88;95343.21;110012;1249;59323;-69
2022/04/01 05:50:27;;;;;;;14.20;7.10;;;;;;;11.32;73.36;95339.29;109800;1248;69997;-65
2022/04/01 05:53:02;;;;;;;9.20;6.00;;;;;;;11.38;73.98;95336.71;109712;1249;69450;-66
2022/04/01 05:55:46;;;;;;;11.40;6.80;;;;;;;11.43;73.95;95334.75;109858;1248;68693;-66
2022/04/01 05:58:19;;;;;;;12.60;7.70;;;;;;;11.50;73.95;95335.58;109757;1249;58908;-64
2022/04/01 06:01:07;;;;;;;10.20;6.40;;;;;;;11.55;74.00;95337.07;110124;1248;58878;-67
2022/04/01 06:04:12;;;;;;;11.30;6.30;;;;;;;11.60;74.48;95335.98;109778;1249;70775;-67
2022/04/01 06:07:08;;;;;;;10.00;6.40;;;;;;;11.70;73.83;95335.95;109858;1250;69347;-63
2022/04/01 06:09:44;;;;;;;10.80;6.00;;;;;;;11.83;73.76;95337.01;109841;1248;69229;-67
2022/04/01 06:13:25;;;;;;;8.60;4.70;;;;;;;11.97;73.66;95333.35;110082;1247;58873;-66
2022/04/01 06:16:38;;;;;;;10.90;5.80;;;;;;;12.17;71.98;95328.84;109897;1248;58873;-64
2022/04/01 06:19:27;;;;;;;12.80;6.40;;;;;;;12.35;71.00;95316.52;110102;1247;69951;-65
2022/04/01 06:22:03;;;;;;;12.40;6.50;;;;;;;12.57;71.51;95310.32;109890;1248;69452;-66
2022/04/01 06:25:16;;;;;;;9.20;6.80;;;;;;;12.81;70.28;95318.60;109909;1247;68653;-65
2022/04/01 06:27:50;;;;;;;11.10;7.20;;;;;;;13.04;68.30;95328.50;109257;1248;59387;-68
2022/04/01 06:30:22;;;;;;;12.30;7.30;;;;;;;13.24;68.16;95320.98;109798;1249;58947;-62
2022/04/01 06:33:21;;;;;;;14.70;7.70;;;;;;;13.49;68.01;95321.88;110029;1248;69991;-63
2022/04/01 06:36:06;;;;;;;12.40;6.70;;;;;;;13.80;68.32;95323.38;109994;1249;68570;-64
2022/04/01 06:38:41;;;;;;;11.60;6.20;;;;;;;14.12;67.67;95313.40;109697;1249;69995;-64
2022/04/01 06:41:28;;;;;;;13.40;6.00;;;;;;;14.47;65.84;95310.11;109745;1249;58945;-65
2022/04/01 06:44:12;;;;;;;8.60;5.10;;;;;;;14.88;65.84;95306.39;109842;1249;59249;-66
2022/04/01 06:47:00;;;;;;;8.30;4.70;;;;;;;15.40;63.36;95306.40;110197;1247;71464;-62
2022/04/01 06:49:29;;;;;;;8.50;3.40;;;;;;;15.94;62.17;95310.90;109980;1249;69814;-65
2022/04/01 06:52:19;;;;;;;6.10;2.80;;;;;;;16.49;60.13;95312.81;110035;1247;68631;-63
2022/04/01 06:55:10;;;;;;;6.80;4.00;;;;;;;16.92;56.48;95318.16;110026;1247;59005;-65
2022/04/01 06:57:56;;;;;;;5.70;2.90;;;;;;;17.28;54.69;95317.15;109959;1247;58898;-68
2022/04/01 07:00:34;;;;;;;4.90;2.90;;;;;;;17.50;52.61;95309.09;109914;1247;69751;-65
2022/04/01 07:03:04;;;;;;;7.80;2.50;;;;;;;17.68;52.54;95305.41;109921;1247;69440;-71
2022/04/01 07:05:35;;;;;;;;;;;;;;;18.04;50.70;95304.84;109991;1247;70192;-65
2022/04/01 07:08:05;;;;;;;4.70;2.30;;;;;;;18.37;49.74;95307.91;110137;1247;58887;-64
2022/04/01 07:10:36;;;;;;;5.00;2.20;;;;;;;18.64;48.40;95314.27;109937;1247;58874;-67
2022/04/01 07:13:05;;;;;;;5.00;2.50;;;;;;;18.76;48.44;95316.24;110079;1247;70548;-67
2022/04/01 07:15:35;;;;;;;5.10;2.80;;;;;;;19.09;47.45;95313.38;110097;1247;68732;-66
2022/04/01 07:18:06;;;;;;;5.30;2.50;;;;;;;19.40;46.76;95309.78;110096;1247;68724;-70
2022/04/01 07:20:37;;;;;;;5.30;2.40;;;;;;;19.50;46.14;95307.13;110044;1247;58944;-68
2022/04/01 07:23:07;;;;;;;4.60;2.40;;;;;;;19.45;45.60;95304.75;110075;1247;58885;-70
2022/04/01 07:25:38;;;;;;;5.70;2.30;;;;;;;19.30;45.54;95302.25;110170;1247;70693;-70
2022/04/01 07:28:09;;;;;;;5.30;2.80;;;;;;;19.06;45.88;95304.04;110112;1247;70565;-71
2022/04/01 07:30:40;;;;;;;3.50;2.20;;;;;;;19.00;45.71;95302.24;110056;1247;69418;-64
2022/04/01 07:33:11;;;;;;;4.40;2.20;;;;;;;18.95;45.47;95300.20;110105;1247;58922;-70
2022/04/01 07:35:44;;;;;;;4.70;2.40;;;;;;;19.15;45.47;95293.86;110081;1246;58929;-70
2022/04/01 07:38:14;;;;;;;4.70;2.30;;;;;;;19.41;44.70;95291.76;110175;1245;70035;-69
2022/04/01 07:40:43;;;;;;;4.70;2.10;;;;;;;19.50;44.35;95289.85;110111;1247;68780;-70
2022/04/01 07:43:12;;;;;;;5.20;2.10;;;;;;;19.68;43.71;95285.69;109774;1247;70141;-70
2022/04/01 07:45:43;;;;;;;3.80;2.30;;;;;;;19.98;43.81;95283.98;110101;1247;58865;-62
2022/04/01 07:48:14;;;;;;;3.90;1.70;;;;;;;20.20;43.46;95283.93;110210;1244;58854;-64
2022/04/01 07:50:44;;;;;;;3.80;2.00;;;;;;;20.37;41.64;95283.76;110042;1247;70710;-66
2022/04/01 07:53:13;;;;;;;4.10;2.10;;;;;;;20.28;42.06;95281.70;109922;1247;70096;-68
2022/04/01 07:55:43;;;;;;;4.90;2.00;;;;;;;20.55;41.70;95283.98;109828;1247;68778;-64
2022/04/01 07:58:12;;;;;;;2.60;1.30;;;;;;;20.75;40.88;95283.23;110095;1247;58899;-67
2022/04/01 08:00:53;;;;;;;3.10;1.10;;;;;;;20.65;39.42;95275.17;110011;1246;58904;-66
2022/04/01 08:03:23;;;;;;;2.90;1.10;;;;;;;20.44;40.03;95275.70;110014;1249;70841;-64
2022/04/01 08:05:53;;;;;;;3.60;1.00;;;;;;;20.40;39.87;95275.14;109757;1248;68655;-62
2022/04/01 08:08:23;;;;;;;1.50;1.00;;;;;;;20.27;39.77;95272.05;109793;1249;68446;-64
2022/04/01 08:10:54;;;;;;;3.40;1.20;;;;;;;20.61;39.65;95273.38;109824;1249;58909;-68
2022/04/01 08:13:44;;;;;;;2.50;1.00;;;;;;;21.15;38.03;95283.39;110145;1247;58789;-65
2022/04/01 08:16:14;;;;;;;1.70;1.20;;;;;;;21.61;37.26;95282.52;110048;1247;70603;-65
2022/04/01 08:18:44;;;;;;;3.30;1.10;;;;;;;21.56;36.72;95277.91;110052;1247;67612;-70
2022/04/01 08:21:15;;;;;;;;;;;;;;;21.62;36.85;95275.23;110045;1248;69268;-66
2022/04/01 08:23:44;;;;;;;4.40;1.60;;;;;;;21.88;36.47;95272.66;110037;1247;58883;-64
2022/04/01 08:26:14;;;;;;;3.40;1.50;;;;;;;22.39;36.61;95266.27;110051;1247;58882;-67
2022/04/01 08:28:44;;;;;;;4.10;1.30;;;;;;;22.78;35.36;95260.80;110107;1247;70806;-64
2022/04/01 08:31:13;;;;;;;4.00;1.20;;;;;;;23.19;35.01;95255.16;110133;1247;68814;-69
2022/04/01 08:33:43;;;;;;;;;;;;;;;23.57;34.11;95255.37;110089;1247;70121;-72
2022/04/01 08:36:12;;;;;;;4.90;1.50;;;;;;;23.99;32.90;95254.63;110070;1247;58832;-65
2022/04/01 08:38:41;;;;;;;3.60;1.60;;;;;;;23.75;32.87;95254.96;110108;1247;58895;-68
2022/04/01 08:41:17;;;;;;;5.30;1.80;;;;;;;22.88;33.13;95250.86;109942;1247;70812;-66
2022/04/01 08:43:49;;;;;;;3.20;1.50;;;;;;;22.46;34.42;95256.45;110042;1248;69520;-69
2022/04/01 08:46:20;;;;;;;5.10;1.70;;;;;;;21.65;35.75;95256.33;109699;1247;68706;-65
2022/04/01 08:48:50;;;;;;;2.80;1.30;;;;;;;21.12;36.77;95246.86;110029;1248;58897;-71
2022/04/01 08:51:19;;;;;;;4.60;1.70;;;;;;;20.97;37.06;95249.20;110016;1248;58883;-68
2022/04/01 08:53:49;;;;;;;5.20;2.00;;;;;;;20.75;38.03;95242.58;109947;1247;70807;-68
2022/04/01 08:56:20;;;;;;;6.80;2.20;;;;;;;20.67;38.04;95244.42;110111;1247;69522;-70
2022/04/01 08:58:49;;;;;;;6.10;1.70;;;;;;;20.48;38.74;95236.03;110106;1247;69374;-67
2022/04/01 09:01:18;;;;;;;5.50;2.30;;;;;;;20.58;38.60;95240.39;110125;1247;58944;-64
2022/04/01 09:03:48;;;;;;;4.80;1.80;;;;;;;20.71;38.12;95246.12;110075;1247;58890;-66
2022/04/01 09:06:19;;;;;;;6.30;1.90;;;;;;;20.72;37.71;95238.67;110083;1247;70238;-69
2022/04/01 09:08:48;;;;;;;4.40;1.90;;;;;;;20.68;37.66;95244.58;110139;1247;69370;-66
2022/04/01 09:11:18;;;;;;;6.00;2.30;;;;;;;20.59;37.73;95239.02;110083;1247;69465;-67
2022/04/01 09:13:51;;;;;;;6.70;2.40;;;;;;;20.57;38.27;95243.43;110025;1247;58901;-66
2022/04/01 09:16:28;;;;;;;8.00;2.60;;;;;;;20.57;38.07;95252.04;109975;1247;58930;-70
2022/04/01 09:19:02;;;;;;;8.20;2.40;;;;;;;20.42;38.42;95251.58;110099;1247;70201;-67
2022/04/01 09:21:39;;;;;;;9.60;2.90;;;;;;;20.34;38.18;95257.83;110082;1247;70052;-64
2022/04/01 09:24:11;;;;;;;10.40;3.20;;;;;;;19.90;38.11;95258.82;109935;1247;68684;-64
2022/04/01 09:26:41;;;;;;;11.10;3.10;;;;;;;19.78;37.98;95259.30;110085;1247;58896;-63
2022/04/01 09:29:11;;;;;;;;;;;;;;;19.66;38.90;95254.73;110155;1247;58934;-69
2022/04/01 09:31:41;;;;;;;10.10;3.80;;;;;;;19.74;38.57;95254.52;110133;1247;70883;-63
2022/04/01 09:34:13;;;;;;;9.00;2.90;;;;;;;19.81;39.04;95256.16;110084;1247;68742;-63
2022/04/01 09:36:43;;;;;;;9.70;3.20;;;;;;;19.96;38.89;95246.33;110082;1247;69568;-63
2022/04/01 09:39:16;;;;;;;14.50;4.20;;;;;;;20.36;38.96;95239.89;110107;1247;58910;-66
2022/04/01 09:41:52;;;;;;;13.30;3.50;;;;;;;20.69;37.61;95239.77;110019;1248;58930;-65
2022/04/01 09:44:29;;;;;;;16.20;4.10;;;;;;;20.67;37.14;95230.42;110004;1248;71359;-65
2022/04/01 09:47:04;;;;;;;12.70;3.50;;;;;;;20.34;37.52;95239.14;110090;1247;69440;-67
2022/04/01 09:49:42;;;;;;;15.60;3.80;;;;;;;20.13;37.84;95227.30;110069;1247;69464;-62
2022/04/01 09:52:16;;;;;;;13.60;3.80;;;;;;;20.01;38.40;95224.84;110101;1247;58918;-66
2022/04/01 09:54:47;;;;;;;14.20;4.50;;;;;;;20.00;38.74;95226.20;110147;1247;58850;-66
2022/04/01 09:57:18;;;;;;;14.00;4.40;;;;;;;19.95;38.86;95223.23;110078;1247;69783;-64
2022/04/01 09:59:50;;;;;;;17.00;4.60;;;;;;;19.94;39.12;95222.48;110051;1247;70025;-65
2022/04/01 10:02:20;;;;;;;14.10;4.00;;;;;;;19.93;38.28;95223.15;110089;1247;68666;-63
2022/04/01 10:04:50;;;;;;;17.30;4.50;;;;;;;19.72;37.87;95225.59;110077;1247;59388;-68
2022/04/01 10:07:20;;;;;;;19.90;5.00;;;;;;;19.57;38.10;95223.83;110119;1247;58940;-67
2022/04/01 10:09:53;;;;;;;17.90;4.60;;;;;;;19.49;38.44;95224.47;110086;1247;70762;-62
2022/04/01 10:12:38;;;;;;;17.70;4.70;;;;;;;19.34;38.75;95225.60;110103;1247;69653;-63
2022/04/01 10:15:10;;;;;;;14.60;4.60;;;;;;;19.24;39.27;95222.42;110051;1247;68222;-70
2022/04/01 10:17:57;;;;;;;16.40;4.60;;;;;;;19.13;39.18;95223.67;109988;1248;58889;-66
2022/04/01 10:20:33;;;;;;;16.60;4.00;;;;;;;18.93;39.80;95227.96;109877;1249;58940;-67
2022/04/01 10:23:05;;;;;;;15.40;4.60;;;;;;;18.76;40.05;95230.95;110034;1247;70895;-62
2022/04/01 10:25:45;;;;;;;15.80;4.50;;;;;;;18.62;40.11;95230.41;110059;1247;69383;-64
2022/04/01 10:28:17;;;;;;;17.40;4.90;;;;;;;18.53;40.33;95231.56;110024;1248;69025;-69
2022/04/01 10:30:55;;;;;;;12.00;3.30;;;;;;;18.43;40.72;95241.31;110010;1248;58959;-69
2022/04/01 10:33:33;;;;;;;11.90;2.80;;;;;;;18.04;42.42;95219.40;110071;1247;58939;-69
2022/04/01 10:36:21;;;;;;;9.60;2.50;;;;;;;17.82;43.39;95227.51;110106;1247;70764;-67
2022/04/01 10:39:00;;;;;;;10.90;3.60;;;;;;;17.26;47.44;95234.13;110071;1247;69306;-66
2022/04/01 10:41:29;;;;;;;12.90;3.50;;;;;;;17.12;48.36;95234.77;110096;1247;69667;-70
2022/04/01 10:44:00;;;;;;;8.80;3.30;;;;;;;16.84;48.96;95237.62;110092;1247;58934;-66
2022/04/01 10:46:30;;;;;;;13.60;3.30;;;;;;;16.71;49.26;95242.10;110067;1247;58877;-70
2022/04/01 10:52:02;;;;;;;11.70;4.00;;;;;;;16.29;52.94;95239.88;110121;1247;68723;-72
2022/04/01 10:54:31;;;;;;;13.60;3.80;;;;;;;16.23;53.52;95231.52;110028;1247;68747;-67
2022/04/01 10:57:08;;;;;;;13.50;4.60;;;;;;;16.13;54.79;95229.77;110143;1247;58912;-68
2022/04/01 10:59:43;;;;;;;12.80;4.30;;;;;;;16.07;54.95;95223.11;110073;1247;58869;-67
2022/04/01 11:02:18;;;;;;;14.60;3.90;;;;;;;16.24;53.50;95218.58;110113;1247;70837;-68
2022/04/01 11:04:53;;;;;;;16.00;4.90;;;;;;;16.29;53.08;95212.02;110030;1250;68960;-67
2022/04/01 11:07:22;;;;;;;14.30;4.60;;;;;;;16.42;51.78;95207.45;110039;1248;69438;-67
2022/04/01 11:09:53;;;;;;;19.50;6.40;;;;;;;16.56;51.67;95208.11;110042;1247;58877;-68
2022/04/01 11:12:22;;;;;;;17.60;5.20;;;;;;;16.68;51.37;95203.66;110023;1247;58888;-70
2022/04/01 11:14:56;;;;;;;19.80;5.80;;;;;;;16.84;49.53;95207.70;110096;1247;70913;-67
2022/04/01 11:17:34;;;;;;;18.40;6.00;;;;;;;17.12;45.63;95217.27;110036;1247;68662;-67
2022/04/01 11:20:12;;;;;;;23.00;5.90;;;;;;;17.25;44.76;95224.58;110090;1247;68826;-64
2022/04/01 11:22:47;;;;;;;23.80;6.10;;;;;;;17.30;44.82;95230.64;110090;1247;58899;-65
2022/04/01 11:25:21;;;;;;;19.50;5.40;;;;;;;17.23;44.93;95236.81;110075;1247;58870;-68
2022/04/01 11:28:14;;;;;;;16.50;6.20;;;;;;;17.11;45.65;95240.20;110038;1247;70099;-68
2022/04/01 11:30:51;;;;;;;16.90;5.00;;;;;;;17.03;46.30;95251.91;110113;1247;69501;-66
2022/04/01 11:33:22;;;;;;;16.50;4.60;;;;;;;16.87;47.15;95263.10;110167;1249;68706;-62
2022/04/01 11:35:53;;;;;;;15.00;4.60;;;;;;;16.72;47.84;95256.41;110032;1247;58876;-62
2022/04/01 11:38:29;;;;;;;16.00;5.00;;;;;;;16.64;48.33;95277.25;110132;1247;58863;-61
2022/04/01 11:41:01;;;;;;;11.30;3.80;;;;;;;16.49;49.08;95262.14;110003;1250;70785;-62
2022/04/01 11:43:33;;;;;;;13.70;4.70;;;;;;;16.39;49.48;95273.44;109900;1249;69518;-66
2022/04/01 11:46:06;;;;;;;13.90;4.90;;;;;;;16.24;50.13;95281.52;110120;1247;68843;-64
2022/04/01 11:48:41;;;;;;;12.60;4.30;;;;;;;16.09;50.92;95287.14;110090;1247;58954;-63
2022/04/01 11:51:29;;;;;;;16.40;4.80;;;;;;;16.04;51.16;95292.23;110100;1246;58889;-69
2022/04/01 11:53:58;;;;;;;17.50;5.20;;;;;;;15.92;51.76;95291.52;109966;1247;69949;-63
2022/04/01 11:56:28;;;;;;;14.90;4.90;;;;;;;15.74;52.57;95301.13;110111;1249;69524;-64
2022/04/01 11:59:01;;;;;;;18.00;4.90;;;;;;;15.74;52.67;95302.34;109847;1247;68576;-63
2022/04/01 12:01:54;;;;;;;13.50;4.00;;;;;;;15.46;54.85;95314.66;110186;1247;58869;-63
2022/04/01 12:04:28;;;;;;;11.30;4.30;;;;;;;14.77;59.91;95316.78;110041;1249;58844;-64
2022/04/01 12:09:51;;;;;;;10.40;4.30;;;;;;;14.17;63.42;95312.53;109998;1247;69403;-61
2022/04/01 12:12:25;;;;;;;12.40;3.80;;;;;;;14.12;64.33;95310.45;109868;1249;68511;-68
2022/04/01 12:14:56;;;;;;;13.60;4.50;;;;;;;14.07;64.72;95304.34;110097;1247;58898;-67